Time;durP1;ratioP1;P1;durP2;ratioP2;P2;SDS_P1;SDS_P2;PMS_P1;PMS_P2;Temp;Humidity;BMP_temperature;BMP_pressure;BME280_temperature;BME280_humidity;BME280_pressure;Samples;Min_cycle;Max_cycle;Signal;HPM_P1;HPM_P2
2023/09/12 00:01:33;;;;;;;51.53;33.15;;;19.60;99.90;;;;;;5012442;28;20037;-67
2023/09/12 00:03:59;;;;;;;51.13;32.67;;;19.60;99.90;;;;;;5013580;28;20519;-67
2023/09/12 00:06:24;;;;;;;51.55;33.30;;;19.60;99.90;;;;;;5011625;28;20096;-68
2023/09/12 00:08:52;;;;;;;49.95;33.65;;;19.60;99.90;;;;;;5020056;28;20036;-67
2023/09/12 00:11:18;;;;;;;49.80;31.67;;;19.60;99.90;;;;;;5014002;28;20052;-67
2023/09/12 00:13:44;;;;;;;51.92;32.60;;;19.60;99.90;;;;;;5014071;28;20096;-66
2023/09/12 00:16:10;;;;;;;51.72;33.40;;;19.60;99.90;;;;;;5010337;28;20087;-66
2023/09/12 00:18:39;;;;;;;57.10;33.60;;;19.50;99.90;;;;;;5013315;28;20061;-66
2023/09/12 00:21:05;;;;;;;56.92;34.65;;;19.50;99.90;;;;;;4995914;28;20535;-65
2023/09/12 00:23:31;;;;;;;56.65;34.67;;;19.50;99.90;;;;;;4993460;28;20125;-65
2023/09/12 00:25:58;;;;;;;52.20;34.42;;;19.50;99.90;;;;;;5012866;28;20096;-68
2023/09/12 00:28:23;;;;;;;50.40;32.40;;;19.50;99.90;;;;;;5013389;28;20459;-66
2023/09/12 00:30:49;;;;;;;49.63;32.67;;;19.50;99.90;;;;;;5011081;28;20042;-66
2023/09/12 00:33:15;;;;;;;52.25;33.63;;;19.50;99.90;;;;;;5012789;28;20060;-66
2023/09/12 00:35:40;;;;;;;55.67;33.25;;;19.40;99.90;;;;;;5013296;28;20034;-67
2023/09/12 00:38:06;;;;;;;52.38;33.33;;;19.50;99.90;;;;;;5013515;28;20124;-67
2023/09/12 00:40:32;;;;;;;60.80;35.10;;;19.50;99.90;;;;;;5011376;28;20535;-65
2023/09/12 00:42:58;;;;;;;56.53;34.72;;;19.50;99.90;;;;;;5002443;28;20052;-67
2023/09/12 00:45:24;;;;;;;58.83;36.38;;;19.50;99.90;;;;;;5020111;28;20052;-67
2023/09/12 00:47:52;;;;;;;64.03;36.13;;;19.50;99.90;;;;;;5012043;28;20030;-67
2023/09/12 00:50:19;;;;;;;59.97;36.60;;;19.50;99.90;;;;;;5012679;28;20046;-67
2023/09/12 00:52:45;;;;;;;51.53;33.67;;;19.50;99.90;;;;;;5018445;28;20033;-67
2023/09/12 00:55:11;;;;;;;56.25;34.22;;;19.60;99.90;;;;;;5033069;28;20503;-66
2023/09/12 00:57:37;;;;;;;56.40;35.33;;;19.50;99.90;;;;;;5020433;28;20034;-67
2023/09/12 01:00:10;;;;;;;49.17;30.98;;;19.60;99.90;;;;;;5015113;28;20057;-67
2023/09/12 01:02:45;;;;;;;54.97;32.08;;;19.60;99.90;;;;;;4995374;28;20061;-67
2023/09/12 01:05:14;;;;;;;47.55;31.40;;;19.60;99.90;;;;;;4995639;28;20085;-67
2023/09/12 01:07:39;;;;;;;50.90;33.47;;;19.50;99.90;;;;;;5011303;28;20061;-67
2023/09/12 01:10:06;;;;;;;55.08;31.42;;;19.50;99.90;;;;;;5011743;28;20112;-67
2023/09/12 01:12:32;;;;;;;46.30;30.05;;;19.50;99.90;;;;;;5011818;28;20244;-65
2023/09/12 01:14:58;;;;;;;43.35;28.48;;;19.40;99.90;;;;;;5009614;28;20141;-66
2023/09/12 01:17:24;;;;;;;44.95;29.90;;;19.40;99.90;;;;;;5019115;28;20042;-66
2023/09/12 01:19:51;;;;;;;60.50;26.02;;;19.30;99.90;;;;;;5011720;28;20049;-65
2023/09/12 01:22:25;;;;;;;42.67;28.73;;;19.20;99.90;;;;;;5009678;28;20065;-66
2023/09/12 01:25:08;;;;;;;96.25;27.38;;;19.20;99.90;;;;;;5016059;28;20044;-65
2023/09/12 01:27:48;;;;;;;64.15;24.67;;;19.10;99.90;;;;;;5011369;28;20073;-65
2023/09/12 01:30:20;;;;;;;62.70;28.67;;;19.00;99.90;;;;;;5011421;28;20046;-67
2023/09/12 01:32:46;;;;;;;32.83;22.95;;;18.90;99.90;;;;;;5003879;28;20048;-65
2023/09/12 01:35:12;;;;;;;292.02;24.15;;;18.90;99.90;;;;;;5011304;28;20041;-66
2023/09/12 01:37:38;;;;;;;166.77;20.60;;;18.80;99.90;;;;;;5011075;28;20042;-66
2023/09/12 01:40:04;;;;;;;669.83;28.77;;;18.70;99.90;;;;;;5009332;28;20492;-66
2023/09/12 01:42:43;;;;;;;577.17;29.98;;;18.60;99.90;;;;;;5015642;28;20044;-66
2023/09/12 01:45:17;;;;;;;352.58;28.60;;;18.50;99.90;;;;;;5018224;28;20042;-67
2023/09/12 01:47:45;;;;;;;125.28;25.05;;;18.40;99.90;;;;;;5003018;28;20046;-67
2023/09/12 01:50:13;;;;;;;358.52;31.00;;;18.40;99.90;;;;;;5011068;28;20038;-66
2023/09/12 01:52:40;;;;;;;352.05;31.38;;;18.40;99.90;;;;;;4999073;28;20448;-66
2023/09/12 01:55:08;;;;;;;322.05;31.77;;;18.40;99.90;;;;;;5031848;28;20048;-66
2023/09/12 01:57:35;;;;;;;293.05;34.20;;;18.40;99.90;;;;;;5009679;28;20574;-65
2023/09/12 02:00:01;;;;;;;424.60;35.38;;;18.30;99.90;;;;;;5011604;28;20046;-64
2023/09/12 02:02:27;;;;;;;357.75;33.15;;;18.40;99.90;;;;;;5011946;28;20129;-66
2023/09/12 02:05:18;;;;;;;206.60;32.33;;;18.40;99.90;;;;;;5014521;28;20061;-67
2023/09/12 02:07:45;;;;;;;185.93;31.58;;;18.30;99.90;;;;;;5010681;28;20038;-66
2023/09/12 02:10:10;;;;;;;122.05;27.40;;;18.30;99.90;;;;;;5028492;28;20048;-65
2023/09/12 02:12:37;;;;;;;129.95;29.38;;;18.20;99.90;;;;;;5018853;28;20026;-66
2023/09/12 02:15:03;;;;;;;124.85;27.88;;;18.30;99.90;;;;;;4992977;28;20064;-65
2023/09/12 02:17:29;;;;;;;56.60;25.55;;;18.20;99.90;;;;;;5010505;28;20052;-67
2023/09/12 02:19:54;;;;;;;68.65;24.20;;;18.20;99.90;;;;;;5009408;28;20045;-65
2023/09/12 02:22:20;;;;;;;115.15;26.30;;;18.20;99.90;;;;;;5011908;28;20037;-67
2023/09/12 02:24:45;;;;;;;80.13;27.98;;;18.10;99.90;;;;;;5011634;28;20069;-65
2023/09/12 02:27:11;;;;;;;79.75;25.50;;;18.10;99.90;;;;;;5011747;28;20497;-67
2023/09/12 02:29:39;;;;;;;36.38;25.30;;;18.10;99.90;;;;;;4994216;28;20050;-67
2023/09/12 02:32:05;;;;;;;118.00;27.10;;;18.10;99.90;;;;;;4999310;28;20107;-67
2023/09/12 02:34:30;;;;;;;77.40;25.98;;;18.10;99.90;;;;;;5011652;28;20045;-66
2023/09/12 02:36:56;;;;;;;207.45;27.83;;;18.10;99.90;;;;;;5012907;28;20060;-65
2023/09/12 02:39:21;;;;;;;168.48;24.95;;;18.10;99.90;;;;;;5011231;28;20092;-66
2023/09/12 02:41:47;;;;;;;252.18;24.40;;;18.10;99.90;;;;;;5011097;28;20030;-65
2023/09/12 02:44:13;;;;;;;277.92;23.60;;;18.00;99.90;;;;;;5010472;28;20381;-66
2023/09/12 02:46:38;;;;;;;383.77;29.98;;;18.10;99.90;;;;;;5001609;28;20125;-67
2023/09/12 02:49:04;;;;;;;226.40;26.67;;;18.10;99.90;;;;;;5015708;28;20649;-67
2023/09/12 02:51:29;;;;;;;293.00;30.58;;;18.10;99.90;;;;;;4997147;28;20069;-65
2023/09/12 02:53:55;;;;;;;207.55;29.38;;;18.10;99.90;;;;;;5019265;28;20806;-66
2023/09/12 02:56:21;;;;;;;224.27;34.33;;;18.20;99.90;;;;;;5022124;28;20042;-65
2023/09/12 02:58:47;;;;;;;227.05;34.65;;;18.30;99.90;;;;;;5002687;28;20369;-66
2023/09/12 03:01:19;;;;;;;165.23;36.00;;;18.40;99.90;;;;;;5029176;28;20140;-66
2023/09/12 03:03:49;;;;;;;155.07;34.97;;;18.50;99.90;;;;;;5019809;28;20113;-65
2023/09/12 03:06:15;;;;;;;211.02;35.63;;;18.50;99.90;;;;;;5014011;28;20038;-66
2023/09/12 03:08:41;;;;;;;179.68;34.72;;;18.60;99.90;;;;;;5014369;28;20061;-65
2023/09/12 03:11:07;;;;;;;227.52;35.85;;;18.70;99.90;;;;;;5014540;28;20086;-66
2023/09/12 03:13:34;;;;;;;262.42;36.70;;;18.70;99.90;;;;;;5013545;28;20042;-67
2023/09/12 03:16:00;;;;;;;232.45;36.78;;;18.70;99.90;;;;;;5014017;28;20065;-67
2023/09/12 03:18:26;;;;;;;226.68;36.78;;;18.70;99.90;;;;;;5014040;28;20038;-66
2023/09/12 03:20:52;;;;;;;187.73;34.72;;;18.70;99.90;;;;;;5029451;28;20090;-65
2023/09/12 03:23:19;;;;;;;166.63;34.85;;;18.70;99.90;;;;;;5014594;28;20037;-65
2023/09/12 03:25:44;;;;;;;182.20;34.25;;;18.70;99.90;;;;;;5015827;28;20041;-65
2023/09/12 03:28:10;;;;;;;143.43;35.00;;;18.70;99.90;;;;;;5016994;28;20045;-65
2023/09/12 03:30:37;;;;;;;172.95;36.47;;;18.70;99.90;;;;;;5014980;28;20034;-67
2023/09/12 03:33:03;;;;;;;150.93;34.72;;;18.70;99.90;;;;;;5014139;28;20037;-65
2023/09/12 03:35:31;;;;;;;126.82;34.40;;;18.70;99.90;;;;;;5011814;28;20045;-66
2023/09/12 03:37:56;;;;;;;115.43;33.45;;;18.70;99.90;;;;;;4995983;28;20120;-65
2023/09/12 03:40:22;;;;;;;89.57;33.90;;;18.70;99.90;;;;;;5012797;28;20125;-66
2023/09/12 03:42:47;;;;;;;89.72;32.05;;;18.60;99.90;;;;;;5010884;28;20034;-66
2023/09/12 03:45:13;;;;;;;104.07;32.35;;;18.60;99.90;;;;;;5017117;28;20096;-66
2023/09/12 03:47:39;;;;;;;109.20;34.30;;;18.60;99.90;;;;;;5012716;28;20029;-67
2023/09/12 03:50:05;;;;;;;97.40;32.95;;;18.60;99.90;;;;;;5013376;28;20048;-67
2023/09/12 03:52:30;;;;;;;78.07;33.00;;;18.60;99.90;;;;;;5016874;28;20103;-67
2023/09/12 03:54:56;;;;;;;128.75;32.85;;;18.50;99.90;;;;;;5015484;28;20435;-67
2023/09/12 03:57:22;;;;;;;157.65;35.70;;;18.50;99.90;;;;;;4994884;28;20548;-66
2023/09/12 03:59:47;;;;;;;96.82;34.38;;;18.60;99.90;;;;;;5012031;28;20048;-66
2023/09/12 04:02:13;;;;;;;107.45;32.67;;;18.60;99.90;;;;;;5012786;28;20038;-66
2023/09/12 04:04:39;;;;;;;103.13;32.95;;;18.50;99.90;;;;;;5012873;28;20040;-67
2023/09/12 04:07:05;;;;;;;95.63;31.92;;;18.50;99.90;;;;;;4995324;28;20042;-66
2023/09/12 04:09:31;;;;;;;104.43;33.50;;;18.50;99.90;;;;;;5017978;28;20048;-66
2023/09/12 04:11:56;;;;;;;112.20;32.92;;;18.50;99.90;;;;;;5012277;28;20121;-66
2023/09/12 04:14:22;;;;;;;124.10;33.03;;;18.50;99.90;;;;;;4995191;28;20041;-66
2023/09/12 04:16:48;;;;;;;144.95;32.95;;;18.50;99.90;;;;;;5016661;28;20156;-65
2023/09/12 04:19:14;;;;;;;109.32;32.13;;;18.50;99.90;;;;;;5017018;28;20034;-65
2023/09/12 04:21:40;;;;;;;103.00;32.83;;;18.50;99.90;;;;;;5012156;28;20134;-67
2023/09/12 04:24:06;;;;;;;107.25;32.50;;;18.40;99.90;;;;;;5015044;28;20555;-66
2023/09/12 04:26:32;;;;;;;111.15;32.30;;;18.40;99.90;;;;;;5012283;28;20041;-67
2023/09/12 04:28:57;;;;;;;108.80;31.80;;;18.40;99.90;;;;;;5012724;28;20087;-67
2023/09/12 04:31:23;;;;;;;115.20;31.75;;;18.50;99.90;;;;;;5010986;28;20401;-67
2023/09/12 04:33:51;;;;;;;101.57;31.20;;;18.50;99.90;;;;;;5014332;28;20451;-66
2023/09/12 04:36:17;;;;;;;111.35;32.05;;;18.40;99.90;;;;;;5019734;28;20037;-66
2023/09/12 04:38:42;;;;;;;109.38;30.60;;;18.40;99.90;;;;;;5012116;28;20511;-66
2023/09/12 04:41:08;;;;;;;115.88;31.73;;;18.40;99.90;;;;;;5012081;28;20030;-67
2023/09/12 04:43:34;;;;;;;72.88;31.35;;;18.40;99.90;;;;;;5011119;28;20484;-65
2023/09/12 04:45:59;;;;;;;103.93;30.40;;;18.40;99.90;;;;;;5013476;28;20045;-66
2023/09/12 04:48:25;;;;;;;79.60;30.60;;;18.40;99.90;;;;;;5012218;28;20038;-66
2023/09/12 04:50:50;;;;;;;92.22;31.83;;;18.30;99.90;;;;;;5014759;28;20041;-67
2023/09/12 04:53:16;;;;;;;78.30;30.98;;;18.40;99.90;;;;;;5002969;28;20204;-67
2023/09/12 04:55:42;;;;;;;97.45;31.20;;;18.30;99.90;;;;;;4994167;28;20123;-65
2023/09/12 04:58:07;;;;;;;99.38;31.40;;;18.30;99.90;;;;;;5022637;28;20044;-66
2023/09/12 05:00:34;;;;;;;101.88;30.77;;;18.40;99.90;;;;;;4999533;28;20049;-67
2023/09/12 05:03:01;;;;;;;71.95;31.42;;;18.30;99.90;;;;;;5012583;28;20492;-66
2023/09/12 05:05:27;;;;;;;81.13;30.95;;;18.30;99.90;;;;;;5016863;28;20044;-65
2023/09/12 05:07:52;;;;;;;114.60;30.95;;;18.30;99.90;;;;;;5010518;28;20038;-66
2023/09/12 05:10:18;;;;;;;71.47;30.35;;;18.30;99.90;;;;;;5010701;28;20073;-66
2023/09/12 05:12:44;;;;;;;81.55;32.35;;;18.30;99.90;;;;;;4990710;28;20201;-66
2023/09/12 05:15:10;;;;;;;66.65;31.45;;;18.30;99.90;;;;;;5006314;28;20180;-66
2023/09/12 05:17:36;;;;;;;61.88;30.27;;;18.30;99.90;;;;;;5011826;28;20044;-65
2023/09/12 05:20:04;;;;;;;87.55;32.00;;;18.30;99.90;;;;;;5008290;28;20188;-66
2023/09/12 05:22:30;;;;;;;82.07;31.55;;;18.30;99.90;;;;;;5006006;28;20561;-64
2023/09/12 05:24:56;;;;;;;103.32;30.45;;;18.30;99.90;;;;;;5016149;28;20657;-64
2023/09/12 05:27:21;;;;;;;97.10;31.52;;;18.20;99.90;;;;;;5013524;28;20064;-67
2023/09/12 05:29:47;;;;;;;76.35;30.88;;;18.20;99.90;;;;;;5008601;28;20389;-73
2023/09/12 05:32:12;;;;;;;84.10;30.95;;;18.10;99.90;;;;;;4989172;28;20046;-67
2023/09/12 05:34:38;;;;;;;76.32;31.48;;;18.10;99.90;;;;;;5015856;28;20033;-66
2023/09/12 05:37:04;;;;;;;63.88;32.45;;;18.10;99.90;;;;;;4996248;28;20496;-67
2023/09/12 05:39:29;;;;;;;117.47;33.42;;;18.10;99.90;;;;;;4993501;28;20148;-67
2023/09/12 05:41:55;;;;;;;59.60;30.30;;;18.20;99.90;;;;;;5012625;28;20665;-66
2023/09/12 05:44:20;;;;;;;94.05;31.65;;;18.30;99.90;;;;;;5011517;28;20084;-66
2023/09/12 05:46:47;;;;;;;61.00;29.65;;;18.30;99.90;;;;;;5011293;28;20049;-66
2023/09/12 05:49:13;;;;;;;99.05;33.53;;;18.40;99.90;;;;;;5010694;28;20130;-64
2023/09/12 05:51:38;;;;;;;142.30;35.10;;;18.40;99.90;;;;;;5015331;28;20512;-64
2023/09/12 05:54:04;;;;;;;119.25;34.35;;;18.40;99.90;;;;;;5022245;28;20076;-64
2023/09/12 05:56:30;;;;;;;123.80;33.95;;;18.40;99.90;;;;;;5025811;28;20041;-67
2023/09/12 05:58:55;;;;;;;102.82;34.03;;;18.50;99.90;;;;;;4989806;28;20046;-66
2023/09/12 06:01:21;;;;;;;81.90;33.58;;;18.50;99.90;;;;;;5013640;28;20069;-66
2023/09/12 06:03:46;;;;;;;109.38;34.70;;;18.50;99.90;;;;;;5006414;28;20033;-66
2023/09/12 06:06:12;;;;;;;97.47;36.38;;;18.50;99.90;;;;;;5007747;28;20168;-68
2023/09/12 06:08:37;;;;;;;154.80;37.45;;;18.60;99.90;;;;;;5013406;28;20037;-68
2023/09/12 06:11:04;;;;;;;124.93;37.60;;;18.70;99.90;;;;;;5026061;28;20191;-65
2023/09/12 06:13:30;;;;;;;99.78;36.55;;;18.70;99.90;;;;;;5008253;28;20037;-65
2023/09/12 06:15:55;;;;;;;85.85;36.75;;;18.70;99.90;;;;;;5013726;28;20041;-65
2023/09/12 06:18:21;;;;;;;91.70;38.88;;;18.70;99.90;;;;;;5008473;28;20045;-67
2023/09/12 06:20:47;;;;;;;101.22;37.90;;;18.70;99.90;;;;;;5020030;28;20083;-66
2023/09/12 06:23:12;;;;;;;118.25;38.17;;;18.70;99.90;;;;;;5020179;28;20416;-66
2023/09/12 06:25:38;;;;;;;89.47;38.50;;;18.80;99.90;;;;;;5023938;28;20473;-67
2023/09/12 06:28:04;;;;;;;83.68;38.25;;;18.80;99.90;;;;;;5013341;28;20408;-67
2023/09/12 06:30:29;;;;;;;78.80;36.10;;;18.80;99.90;;;;;;5014782;28;20037;-66
2023/09/12 06:32:55;;;;;;;81.32;36.97;;;18.80;99.90;;;;;;5012655;28;20042;-65
2023/09/12 06:35:20;;;;;;;83.90;37.97;;;18.80;99.90;;;;;;5029851;28;20045;-64
2023/09/12 06:37:47;;;;;;;80.85;38.05;;;18.80;99.90;;;;;;5030894;28;20045;-65
2023/09/12 06:40:13;;;;;;;81.00;38.58;;;18.80;99.90;;;;;;5010276;28;20042;-65
2023/09/12 06:42:38;;;;;;;91.68;39.15;;;18.80;99.90;;;;;;5007181;28;20099;-64
2023/09/12 06:45:04;;;;;;;83.38;39.30;;;18.90;99.90;;;;;;5031311;28;20407;-65
2023/09/12 06:47:30;;;;;;;88.78;39.05;;;18.90;99.90;;;;;;5016736;28;20489;-65
2023/09/12 06:49:55;;;;;;;90.15;40.97;;;19.00;99.90;;;;;;5010739;28;20543;-67
2023/09/12 06:52:21;;;;;;;81.88;36.58;;;19.10;99.90;;;;;;5012092;28;20128;-64
2023/09/12 06:54:47;;;;;;;87.97;37.55;;;19.10;99.90;;;;;;5027731;28;20101;-65
2023/09/12 06:57:12;;;;;;;80.93;37.53;;;19.10;99.90;;;;;;5011468;28;20125;-63
2023/09/12 06:59:38;;;;;;;75.15;36.30;;;19.10;99.90;;;;;;5010957;28;20030;-64
2023/09/12 07:02:04;;;;;;;81.10;37.35;;;19.30;99.90;;;;;;5011490;28;20381;-63
2023/09/12 07:04:30;;;;;;;77.82;36.28;;;19.40;99.90;;;;;;5013488;28;20451;-64
2023/09/12 07:06:55;;;;;;;76.45;35.80;;;19.40;99.90;;;;;;5011836;28;20073;-64
2023/09/12 07:09:21;;;;;;;71.10;34.90;;;19.50;99.90;;;;;;5010868;28;20041;-63
2023/09/12 07:11:47;;;;;;;77.07;35.10;;;19.60;99.90;;;;;;5009267;28;20504;-64
2023/09/12 07:14:13;;;;;;;69.20;35.03;;;19.60;99.90;;;;;;5011700;28;20034;-64
2023/09/12 07:16:39;;;;;;;68.97;34.13;;;19.60;99.90;;;;;;5018818;28;20032;-64
2023/09/12 07:19:05;;;;;;;66.93;34.78;;;19.60;99.90;;;;;;5010738;28;20496;-63
2023/09/12 07:21:32;;;;;;;70.07;33.95;;;19.60;99.90;;;;;;5011101;28;20420;-64
2023/09/12 07:23:57;;;;;;;65.32;32.95;;;19.60;99.90;;;;;;4993384;28;20052;-64
2023/09/12 07:26:23;;;;;;;67.35;32.47;;;19.50;99.90;;;;;;5009960;28;20108;-64
2023/09/12 07:28:49;;;;;;;62.88;32.33;;;19.40;99.90;;;;;;5010080;28;20504;-64
2023/09/12 07:31:14;;;;;;;60.70;31.63;;;19.30;99.90;;;;;;5011270;28;20084;-64
2023/09/12 07:33:41;;;;;;;67.57;34.15;;;19.30;99.90;;;;;;5024882;28;20034;-64
2023/09/12 07:36:06;;;;;;;64.45;33.38;;;19.30;99.90;;;;;;5015316;28;20084;-64
2023/09/12 07:38:35;;;;;;;71.50;34.92;;;19.30;99.90;;;;;;5015935;28;20065;-64
2023/09/12 07:41:02;;;;;;;72.18;36.00;;;19.30;99.90;;;;;;5013131;28;20496;-64
2023/09/12 07:43:28;;;;;;;71.85;35.17;;;19.30;99.90;;;;;;5013639;28;20068;-64
2023/09/12 07:45:57;;;;;;;77.38;36.85;;;19.30;99.90;;;;;;5010916;28;20038;-64
2023/09/12 07:48:23;;;;;;;80.20;38.33;;;19.40;99.90;;;;;;5012283;28;20030;-64
2023/09/12 07:50:49;;;;;;;78.18;35.83;;;19.40;99.90;;;;;;5013359;28;20057;-64
2023/09/12 07:53:14;;;;;;;77.47;36.70;;;19.40;99.90;;;;;;5020135;28;20037;-64
2023/09/12 07:55:46;;;;;;;69.15;35.15;;;19.50;99.90;;;;;;5013723;28;20243;-64
2023/09/12 07:58:16;;;;;;;69.78;35.33;;;19.50;99.90;;;;;;5022593;28;20529;-64
2023/09/12 08:00:41;;;;;;;66.18;33.38;;;19.50;99.90;;;;;;5032700;28;20124;-63
2023/09/12 08:03:07;;;;;;;66.35;33.95;;;19.60;99.90;;;;;;5017666;28;20172;-64
2023/09/12 08:05:33;;;;;;;65.90;34.50;;;19.60;99.90;;;;;;5020745;28;20063;-64
2023/09/12 08:07:58;;;;;;;69.20;35.30;;;19.60;99.90;;;;;;5012818;28;20500;-64
2023/09/12 08:10:24;;;;;;;66.05;33.35;;;19.80;99.90;;;;;;5011066;28;20030;-64
2023/09/12 08:12:50;;;;;;;58.28;31.73;;;19.90;99.90;;;;;;5015694;28;20041;-64
2023/09/12 08:15:15;;;;;;;55.30;31.85;;;20.00;99.90;;;;;;5021057;28;20037;-64
2023/09/12 08:17:41;;;;;;;54.28;31.05;;;20.10;99.90;;;;;;5010193;28;20041;-64
2023/09/12 08:20:09;;;;;;;57.75;31.02;;;20.10;99.90;;;;;;5012943;28;20034;-64
2023/09/12 08:22:38;;;;;;;50.92;29.02;;;20.10;99.90;;;;;;5017363;28;20484;-64
2023/09/12 08:25:04;;;;;;;52.10;29.20;;;20.10;99.90;;;;;;5032635;28;20037;-65
2023/09/12 08:27:30;;;;;;;49.28;29.42;;;20.10;99.90;;;;;;5020842;28;20038;-66
2023/09/12 08:29:55;;;;;;;48.38;29.02;;;20.20;99.90;;;;;;5011819;28;20034;-66
2023/09/12 08:32:21;;;;;;;50.22;29.17;;;20.20;99.90;;;;;;5002869;28;20056;-66
2023/09/12 08:34:46;;;;;;;51.00;29.83;;;20.30;99.90;;;;;;5013035;28;20033;-66
2023/09/12 08:37:12;;;;;;;50.42;29.58;;;20.30;99.90;;;;;;5019334;28;20041;-66
2023/09/12 08:39:45;;;;;;;51.55;29.60;;;20.40;99.90;;;;;;5017372;28;20422;-66
2023/09/12 08:42:16;;;;;;;52.40;30.17;;;20.50;99.90;;;;;;5018251;28;20447;-66
2023/09/12 08:44:42;;;;;;;48.17;28.63;;;20.60;99.90;;;;;;5013448;28;20072;-66
2023/09/12 08:47:12;;;;;;;50.95;30.20;;;20.70;99.90;;;;;;5011958;28;20030;-66
2023/09/12 08:49:38;;;;;;;48.38;29.67;;;20.80;99.90;;;;;;5020649;28;20034;-66
2023/09/12 08:52:06;;;;;;;48.22;29.65;;;20.70;99.90;;;;;;5012170;28;20579;-66
2023/09/12 08:54:33;;;;;;;51.25;30.30;;;20.70;99.90;;;;;;5010049;28;20045;-66
2023/09/12 08:57:02;;;;;;;48.60;29.02;;;20.70;99.90;;;;;;5011667;28;20059;-66
2023/09/12 08:59:28;;;;;;;47.65;29.65;;;20.60;99.90;;;;;;5023697;28;20300;-66
2023/09/12 09:01:55;;;;;;;49.70;29.42;;;20.60;99.90;;;;;;5018436;28;20096;-64
2023/09/12 09:04:22;;;;;;;55.17;31.05;;;20.60;99.90;;;;;;5011545;28;20759;-64
2023/09/12 09:06:50;;;;;;;51.08;30.20;;;20.60;99.90;;;;;;5012261;28;20050;-64
2023/09/12 09:09:17;;;;;;;50.00;30.02;;;20.70;99.90;;;;;;5012908;28;20052;-64
2023/09/12 09:11:42;;;;;;;49.45;29.95;;;20.70;99.90;;;;;;5015853;28;20038;-64
2023/09/12 09:14:08;;;;;;;45.28;28.80;;;20.90;99.90;;;;;;5014924;28;20053;-64
2023/09/12 09:16:35;;;;;;;46.88;27.92;;;20.90;99.90;;;;;;5011390;28;20045;-65
2023/09/12 09:19:10;;;;;;;47.20;28.85;;;21.10;99.90;;;;;;5011727;28;20516;-64
2023/09/12 09:21:37;;;;;;;48.30;28.40;;;21.20;99.90;;;;;;4994986;28;20088;-64
2023/09/12 09:24:09;;;;;;;51.47;29.98;;;21.20;99.90;;;;;;5012896;28;20038;-64
2023/09/12 09:26:49;;;;;;;49.80;29.30;;;21.20;99.90;;;;;;5012889;28;20039;-64
2023/09/12 09:29:20;;;;;;;47.83;30.05;;;21.20;99.90;;;;;;5012047;28;20651;-64
2023/09/12 09:31:48;;;;;;;51.95;30.30;;;21.40;99.90;;;;;;5012447;28;20077;-64
2023/09/12 09:34:21;;;;;;;46.53;28.83;;;21.50;99.90;;;;;;5014454;28;20045;-64
2023/09/12 09:36:48;;;;;;;47.15;28.77;;;21.70;99.90;;;;;;4999581;28;20070;-64
2023/09/12 09:39:15;;;;;;;45.97;29.75;;;21.80;99.90;;;;;;5011788;28;20038;-65
2023/09/12 09:41:41;;;;;;;44.92;29.92;;;21.80;99.90;;;;;;5015243;28;20092;-65
2023/09/12 09:44:08;;;;;;;49.30;29.38;;;21.80;99.90;;;;;;5009834;28;20037;-64
2023/09/12 09:46:34;;;;;;;45.92;28.58;;;21.80;99.90;;;;;;5010094;28;20073;-64
2023/09/12 09:49:01;;;;;;;49.42;29.77;;;21.80;99.90;;;;;;5009058;28;20047;-65
2023/09/12 09:51:26;;;;;;;45.85;28.83;;;21.80;99.90;;;;;;5012710;28;20077;-65
2023/09/12 09:53:57;;;;;;;46.40;29.63;;;21.80;99.90;;;;;;5024377;28;20029;-66
2023/09/12 09:56:23;;;;;;;48.42;29.73;;;21.90;99.90;;;;;;5011311;28;20052;-65
2023/09/12 09:58:54;;;;;;;45.15;28.83;;;22.10;99.90;;;;;;5012046;28;20065;-65
2023/09/12 10:01:21;;;;;;;39.93;28.33;;;22.10;99.90;;;;;;5009177;28;20084;-65
2023/09/12 10:03:48;;;;;;;44.17;27.58;;;22.10;99.90;;;;;;5008051;28;20042;-66
2023/09/12 10:06:16;;;;;;;40.47;26.23;;;22.10;99.90;;;;;;5031053;28;20411;-64
2023/09/12 10:08:50;;;;;;;40.75;27.40;;;22.10;99.90;;;;;;5010886;28;20492;-65
2023/09/12 10:11:18;;;;;;;44.05;28.20;;;22.20;99.90;;;;;;5011164;28;20116;-64
2023/09/12 10:13:52;;;;;;;44.13;28.98;;;22.40;99.90;;;;;;5011987;28;20121;-64
2023/09/12 10:16:20;;;;;;;38.60;26.35;;;22.50;99.90;;;;;;5010832;28;20042;-64
2023/09/12 10:19:10;;;;;;;37.58;25.85;;;22.60;99.90;;;;;;5011679;28;20278;-64
2023/09/12 10:21:36;;;;;;;37.40;25.17;;;22.80;99.90;;;;;;5011454;28;20046;-64
2023/09/12 10:24:03;;;;;;;38.15;25.00;;;22.90;99.90;;;;;;5011749;28;20041;-65
2023/09/12 10:26:31;;;;;;;42.22;27.25;;;23.00;99.90;;;;;;5010952;28;20092;-64
2023/09/12 10:28:59;;;;;;;42.63;27.73;;;23.00;99.90;;;;;;5018400;28;20029;-64
2023/09/12 10:31:25;;;;;;;42.10;27.23;;;23.20;99.90;;;;;;5018793;28;20057;-64
2023/09/12 10:33:51;;;;;;;42.55;27.33;;;23.20;99.90;;;;;;5017771;28;20029;-65
2023/09/12 10:36:19;;;;;;;39.03;25.90;;;23.20;99.90;;;;;;5020730;28;20042;-64
2023/09/12 10:38:48;;;;;;;37.17;25.63;;;23.20;99.90;;;;;;5011975;28;20049;-64
2023/09/12 10:41:14;;;;;;;37.42;26.13;;;23.20;99.90;;;;;;5013281;28;20511;-66
2023/09/12 10:43:41;;;;;;;38.67;24.58;;;23.10;99.90;;;;;;5016590;28;20050;-65
2023/09/12 10:46:07;;;;;;;36.92;25.52;;;23.10;99.90;;;;;;5013686;28;20038;-65
2023/09/12 10:48:39;;;;;;;38.20;26.00;;;23.20;99.90;;;;;;5011607;28;20519;-66
2023/09/12 10:51:07;;;;;;;38.25;25.48;;;23.20;99.90;;;;;;5008710;28;20085;-66
2023/09/12 10:53:33;;;;;;;41.20;27.00;;;23.40;99.90;;;;;;5018758;28;20042;-65
2023/09/12 10:56:08;;;;;;;41.78;28.20;;;23.60;99.90;;;;;;4993084;28;20095;-64
2023/09/12 10:59:15;;;;;;;39.10;26.45;;;23.80;99.90;;;;;;5013042;28;20488;-64
2023/09/12 11:01:45;;;;;;;38.25;25.45;;;24.00;99.90;;;;;;5016587;28;20114;-66
2023/09/12 11:04:19;;;;;;;36.83;25.47;;;24.20;99.90;;;;;;5030997;28;20627;-65
2023/09/12 11:06:46;;;;;;;36.40;24.38;;;24.30;99.90;;;;;;5025960;28;20087;-64
2023/09/12 11:09:14;;;;;;;37.08;24.65;;;24.40;99.90;;;;;;5033163;28;20072;-64
2023/09/12 11:11:41;;;;;;;31.67;22.90;;;24.50;99.90;;;;;;4997584;28;20472;-64
2023/09/12 11:14:08;;;;;;;33.63;23.02;;;24.40;99.90;;;;;;5014702;28;20042;-65
2023/09/12 11:16:34;;;;;;;34.63;23.60;;;24.30;99.90;;;;;;5019830;28;20037;-65
2023/09/12 11:19:13;;;;;;;30.58;22.95;;;24.00;99.90;;;;;;5030798;28;20037;-64
2023/09/12 11:21:38;;;;;;;34.20;23.35;;;23.90;99.90;;;;;;5029788;28;20511;-65
2023/09/12 11:24:04;;;;;;;30.33;22.52;;;23.90;99.90;;;;;;5014550;28;20072;-65
2023/09/12 11:26:30;;;;;;;33.25;23.10;;;24.10;99.90;;;;;;5022084;28;20485;-64
2023/09/12 11:28:56;;;;;;;34.67;23.48;;;24.20;99.90;;;;;;5015177;28;20041;-65
2023/09/12 11:31:26;;;;;;;31.27;22.75;;;24.30;99.90;;;;;;5001048;28;20459;-65
2023/09/12 11:33:53;;;;;;;31.55;22.65;;;24.20;99.90;;;;;;5014834;28;20100;-65
2023/09/12 11:36:19;;;;;;;31.90;23.10;;;24.00;99.90;;;;;;5014286;28;20118;-66
2023/09/12 11:38:49;;;;;;;32.10;22.45;;;24.10;99.90;;;;;;5012391;28;20116;-66
2023/09/12 11:41:40;;;;;;;31.52;22.90;;;24.40;99.90;;;;;;5021339;28;20090;-66
2023/09/12 11:44:07;;;;;;;28.58;20.85;;;24.60;99.90;;;;;;5017292;28;20120;-65
2023/09/12 11:46:34;;;;;;;31.10;22.30;;;24.80;99.90;;;;;;5012628;28;20030;-64
2023/09/12 11:49:01;;;;;;;36.58;23.35;;;25.00;99.90;;;;;;5014363;28;20412;-66
2023/09/12 11:51:27;;;;;;;28.80;20.77;;;25.20;99.90;;;;;;4996286;28;20540;-66
2023/09/12 11:53:55;;;;;;;28.23;21.05;;;25.30;99.90;;;;;;5017372;28;20120;-66
2023/09/12 11:56:20;;;;;;;23.20;18.45;;;25.40;99.90;;;;;;5021878;28;20100;-66
2023/09/12 11:58:47;;;;;;;22.25;16.95;;;25.40;99.90;;;;;;5014124;28;20374;-66
2023/09/12 12:01:13;;;;;;;24.45;17.92;;;25.50;99.90;;;;;;5012177;28;20048;-65
2023/09/12 12:03:39;;;;;;;24.33;18.48;;;25.60;99.90;;;;;;4999958;28;20061;-66
2023/09/12 12:06:05;;;;;;;27.55;20.45;;;25.60;99.90;;;;;;5015780;28;20081;-65
2023/09/12 12:08:31;;;;;;;32.15;21.60;;;25.50;99.90;;;;;;5013535;28;20037;-65
2023/09/12 12:10:58;;;;;;;26.23;20.85;;;25.50;99.90;;;;;;5014139;28;20056;-65
2023/09/12 12:13:24;;;;;;;26.92;20.17;;;25.60;99.90;;;;;;5014494;28;20044;-66
2023/09/12 12:15:50;;;;;;;24.38;19.17;;;25.60;99.90;;;;;;5014141;28;20056;-65
2023/09/12 12:18:16;;;;;;;24.90;17.65;;;25.70;99.90;;;;;;5030844;28;20400;-66
2023/09/12 12:20:42;;;;;;;27.30;19.15;;;25.60;99.90;;;;;;5024519;28;20040;-65
2023/09/12 12:23:07;;;;;;;21.80;17.23;;;25.70;99.90;;;;;;5029066;28;20446;-66